Time;durP1;ratioP1;P1;durP2;ratioP2;P2;SDS_P1;SDS_P2;PMS_P1;PMS_P2;Temp;Humidity;BMP_temperature;BMP_pressure;BME280_temperature;BME280_humidity;BME280_pressure;Samples;Min_cycle;Max_cycle;Signal;HPM_P1;HPM_P2
2023/07/12 00:00:54;;;;;;;25.30;22.60;;;19.20;99.90;;;;;;4999985;28;20738;-73
2023/07/12 00:03:21;;;;;;;24.83;22.20;;;19.20;99.90;;;;;;4991938;28;20548;-74
2023/07/12 00:05:48;;;;;;;50.58;35.70;;;19.20;99.90;;;;;;4994460;28;20046;-73
2023/07/12 00:08:23;;;;;;;27.90;23.83;;;19.30;99.90;;;;;;4993026;28;20132;-73
2023/07/12 00:10:51;;;;;;;28.75;25.15;;;19.30;99.90;;;;;;4996650;28;20085;-74
2023/07/12 00:13:18;;;;;;;38.47;30.58;;;19.40;99.90;;;;;;4990093;28;20056;-74
2023/07/12 00:15:47;;;;;;;30.00;25.30;;;19.50;99.90;;;;;;4978875;28;20069;-74
2023/07/12 00:18:20;;;;;;;30.05;26.85;;;19.60;99.90;;;;;;4993299;28;20050;-74
2023/07/12 00:20:49;;;;;;;25.98;23.58;;;19.70;99.90;;;;;;4992842;28;20058;-73
2023/07/12 00:23:17;;;;;;;26.27;23.58;;;19.70;99.90;;;;;;4990732;28;20042;-73
2023/07/12 00:25:46;;;;;;;24.75;22.67;;;19.70;99.90;;;;;;4993685;28;20509;-73
2023/07/12 00:28:26;;;;;;;24.98;22.77;;;19.70;99.90;;;;;;4994919;28;20057;-72
2023/07/12 00:30:56;;;;;;;24.42;22.40;;;19.80;99.90;;;;;;4993607;28;20050;-73
2023/07/12 00:33:24;;;;;;;25.30;22.98;;;19.90;99.90;;;;;;5000960;28;20282;-73
2023/07/12 00:35:51;;;;;;;25.25;23.15;;;20.00;99.90;;;;;;4993964;28;20661;-74
2023/07/12 00:38:23;;;;;;;25.20;22.77;;;20.20;99.90;;;;;;4991884;28;20049;-74
2023/07/12 00:41:16;;;;;;;25.05;23.20;;;20.20;99.90;;;;;;4994319;28;20440;-74
2023/07/12 00:43:45;;;;;;;26.60;23.90;;;20.50;99.90;;;;;;4991966;28;20046;-73
2023/07/12 00:46:19;;;;;;;25.38;23.35;;;20.90;99.90;;;;;;4993060;28;20516;-74
2023/07/12 00:48:47;;;;;;;26.27;23.80;;;21.00;99.90;;;;;;4993823;28;20049;-74
2023/07/12 00:51:40;;;;;;;25.73;23.55;;;21.30;99.90;;;;;;4991042;28;20054;-73
2023/07/12 00:54:19;;;;;;;24.75;22.75;;;21.60;99.90;;;;;;4971416;28;20425;-73
2023/07/12 00:56:46;;;;;;;25.40;23.42;;;22.00;99.90;;;;;;4991652;28;20104;-72
2023/07/12 00:59:26;;;;;;;25.30;23.20;;;22.20;99.90;;;;;;4994027;28;20055;-71
2023/07/12 01:01:58;;;;;;;26.17;24.20;;;22.50;99.90;;;;;;4992052;28;20061;-73
2023/07/12 01:04:32;;;;;;;25.48;23.38;;;22.80;99.90;;;;;;4990466;28;20432;-73
2023/07/12 01:06:59;;;;;;;26.50;24.10;;;22.70;99.90;;;;;;4990798;28;20104;-72
2023/07/12 01:09:27;;;;;;;27.52;25.17;;;22.50;99.90;;;;;;5002311;28;20115;-74
2023/07/12 01:11:54;;;;;;;27.65;25.25;;;22.30;99.90;;;;;;4992657;28;20061;-74
2023/07/12 01:14:24;;;;;;;26.67;24.52;;;22.20;99.90;;;;;;5007236;28;20046;-73
2023/07/12 01:17:02;;;;;;;26.38;24.30;;;22.10;99.90;;;;;;4995202;28;20056;-73
2023/07/12 01:19:31;;;;;;;26.40;24.05;;;21.90;99.90;;;;;;4997289;28;20748;-72
2023/07/12 01:22:00;;;;;;;26.38;24.08;;;21.80;99.90;;;;;;4995235;28;20077;-72
2023/07/12 01:24:31;;;;;;;26.35;23.95;;;21.70;99.90;;;;;;4997788;28;20646;-74
2023/07/12 01:27:03;;;;;;;27.48;24.95;;;21.40;99.90;;;;;;4994096;28;20053;-73
2023/07/12 01:29:30;;;;;;;26.02;23.63;;;21.20;99.90;;;;;;4983690;28;20080;-73
2023/07/12 01:31:57;;;;;;;25.58;23.60;;;21.00;99.90;;;;;;4993207;28;20056;-73
2023/07/12 01:34:27;;;;;;;24.45;22.67;;;20.80;99.90;;;;;;4993653;28;20512;-72
2023/07/12 01:36:54;;;;;;;25.17;23.13;;;20.80;99.90;;;;;;4994216;28;20049;-73
2023/07/12 01:39:22;;;;;;;25.13;23.05;;;20.60;99.90;;;;;;4996869;28;20485;-73
2023/07/12 01:41:48;;;;;;;25.13;22.92;;;20.50;99.90;;;;;;4994023;28;20045;-73
2023/07/12 01:44:15;;;;;;;24.80;22.70;;;20.40;99.90;;;;;;4996448;28;20086;-73
2023/07/12 01:46:42;;;;;;;23.42;21.33;;;20.20;99.90;;;;;;4993872;28;20050;-73
2023/07/12 01:49:09;;;;;;;24.33;22.35;;;20.20;99.90;;;;;;4996572;28;20049;-73
2023/07/12 01:51:35;;;;;;;24.40;22.20;;;20.10;99.90;;;;;;4991898;28;20043;-74
2023/07/12 01:54:05;;;;;;;24.17;21.77;;;20.00;99.90;;;;;;5008290;28;20038;-73
2023/07/12 01:56:32;;;;;;;24.98;22.40;;;19.90;99.90;;;;;;5006798;28;20046;-73
2023/07/12 01:58:58;;;;;;;24.33;22.15;;;19.90;99.90;;;;;;4998397;28;20068;-73
2023/07/12 02:01:26;;;;;;;22.95;20.80;;;19.90;99.90;;;;;;5005938;28;20719;-73
2023/07/12 02:03:53;;;;;;;21.85;20.05;;;19.80;99.90;;;;;;4995768;28;20050;-71
2023/07/12 02:06:20;;;;;;;21.38;19.73;;;19.80;99.90;;;;;;4977337;28;20042;-73
2023/07/12 02:08:48;;;;;;;22.80;20.80;;;19.80;99.90;;;;;;4994688;28;20129;-73
2023/07/12 02:11:15;;;;;;;22.75;20.20;;;19.70;99.90;;;;;;4992350;28;20116;-72
2023/07/12 02:13:42;;;;;;;20.63;19.10;;;19.60;99.90;;;;;;4990333;28;20107;-72
2023/07/12 02:16:09;;;;;;;21.67;19.55;;;19.60;99.90;;;;;;4993996;28;20104;-74
2023/07/12 02:18:36;;;;;;;20.02;18.52;;;19.60;99.90;;;;;;4974034;28;20420;-72
2023/07/12 02:21:03;;;;;;;21.02;19.05;;;19.50;99.90;;;;;;4995993;28;20576;-74
2023/07/12 02:23:33;;;;;;;21.15;19.23;;;19.50;99.90;;;;;;4994572;28;20049;-73
2023/07/12 02:26:02;;;;;;;21.42;19.63;;;19.50;99.90;;;;;;4997731;28;20134;-74
2023/07/12 02:28:29;;;;;;;21.58;20.05;;;19.60;99.90;;;;;;4993120;28;20058;-73
2023/07/12 02:31:20;;;;;;;20.38;18.88;;;19.60;99.90;;;;;;4998276;28;20089;-74
2023/07/12 02:33:48;;;;;;;20.27;18.58;;;19.60;99.90;;;;;;4997164;28;20050;-73
2023/07/12 02:36:15;;;;;;;19.20;17.90;;;19.60;99.90;;;;;;4996243;28;20515;-72
2023/07/12 02:38:42;;;;;;;19.30;17.52;;;19.60;99.90;;;;;;4993620;28;20105;-74
2023/07/12 02:41:09;;;;;;;18.73;17.48;;;19.70;99.90;;;;;;5001305;28;20072;-72
2023/07/12 02:43:36;;;;;;;17.67;16.63;;;19.60;99.90;;;;;;4994809;28;20136;-73
2023/07/12 02:46:03;;;;;;;18.80;17.60;;;19.50;99.90;;;;;;5008736;28;20050;-73
2023/07/12 02:48:30;;;;;;;18.67;17.40;;;19.40;99.90;;;;;;5008562;28;20041;-71
2023/07/12 02:50:57;;;;;;;17.75;16.73;;;19.40;99.90;;;;;;5009333;28;20049;-72
2023/07/12 02:53:24;;;;;;;18.35;17.05;;;19.30;99.90;;;;;;5008228;28;20069;-73
2023/07/12 02:55:51;;;;;;;18.35;17.27;;;19.30;99.90;;;;;;5005002;28;20129;-74
2023/07/12 02:58:18;;;;;;;18.52;17.23;;;19.30;99.90;;;;;;4981306;28;20053;-73
2023/07/12 03:00:45;;;;;;;18.27;17.20;;;19.30;99.90;;;;;;4992647;28;20042;-74
2023/07/12 03:03:12;;;;;;;18.83;17.63;;;19.20;99.90;;;;;;4997620;28;20058;-73
2023/07/12 03:05:40;;;;;;;17.77;16.77;;;19.20;99.90;;;;;;4987995;28;20041;-74
2023/07/12 03:08:07;;;;;;;18.92;17.65;;;19.20;99.90;;;;;;4998485;28;20068;-75
2023/07/12 03:10:37;;;;;;;16.67;15.68;;;19.10;99.90;;;;;;4994187;28;20038;-72
2023/07/12 03:13:04;;;;;;;17.33;16.23;;;19.00;99.90;;;;;;5000975;28;20132;-72
2023/07/12 03:15:30;;;;;;;17.40;15.93;;;19.00;99.90;;;;;;5021070;28;20104;-73
2023/07/12 03:17:57;;;;;;;17.25;16.15;;;19.00;99.90;;;;;;5024157;28;20053;-72
2023/07/12 03:20:24;;;;;;;16.85;15.55;;;18.90;99.90;;;;;;5002635;28;20081;-74
2023/07/12 03:22:52;;;;;;;16.83;15.63;;;18.80;99.90;;;;;;4993643;28;20061;-75
2023/07/12 03:25:19;;;;;;;17.48;16.38;;;18.90;99.90;;;;;;4995521;28;20046;-72
2023/07/12 03:27:48;;;;;;;16.73;15.52;;;18.90;99.90;;;;;;4990145;28;20673;-72
2023/07/12 03:30:14;;;;;;;17.02;15.77;;;18.80;99.90;;;;;;4991365;28;20041;-74
2023/07/12 03:32:41;;;;;;;16.48;15.50;;;18.80;99.90;;;;;;4976939;28;20100;-71
2023/07/12 03:35:08;;;;;;;16.77;15.68;;;18.90;99.90;;;;;;5029941;28;20046;-72
2023/07/12 03:37:35;;;;;;;16.95;15.75;;;18.90;99.90;;;;;;5012105;28;20608;-72
2023/07/12 03:40:03;;;;;;;16.35;15.27;;;18.90;99.90;;;;;;4991396;28;20123;-73
2023/07/12 03:42:30;;;;;;;16.27;15.18;;;18.90;99.90;;;;;;4995000;28;20694;-74
2023/07/12 03:44:56;;;;;;;15.27;14.15;;;18.90;99.90;;;;;;4994060;28;20137;-74
2023/07/12 03:47:23;;;;;;;15.57;14.48;;;19.00;99.90;;;;;;4995909;28;20049;-74
2023/07/12 03:49:50;;;;;;;15.48;14.48;;;19.00;99.90;;;;;;4993635;28;20084;-73
2023/07/12 03:52:17;;;;;;;14.95;13.98;;;19.00;99.90;;;;;;4995984;28;20141;-73
2023/07/12 03:54:44;;;;;;;16.02;14.75;;;19.00;99.90;;;;;;4990194;28;20056;-72
2023/07/12 03:57:11;;;;;;;16.35;15.25;;;19.00;99.90;;;;;;5003960;28;20038;-73
2023/07/12 03:59:40;;;;;;;15.30;14.10;;;19.00;99.90;;;;;;4992699;28;20096;-74
2023/07/12 04:02:07;;;;;;;15.18;14.13;;;19.00;99.90;;;;;;4991948;28;20523;-73
2023/07/12 04:04:34;;;;;;;14.57;13.48;;;19.00;99.90;;;;;;4992717;28;20045;-73
2023/07/12 04:07:02;;;;;;;14.63;13.35;;;18.90;99.90;;;;;;4993278;28;20103;-73
2023/07/12 04:09:29;;;;;;;14.25;12.73;;;18.80;99.90;;;;;;4991650;28;20497;-74
2023/07/12 04:11:55;;;;;;;17.42;11.77;;;18.60;99.90;;;;;;4990629;28;20046;-75
2023/07/12 04:14:22;;;;;;;12.35;10.63;;;18.40;99.90;;;;;;4989016;28;20038;-75
2023/07/12 04:16:49;;;;;;;14.73;9.88;;;18.20;99.90;;;;;;4990911;28;20034;-75
2023/07/12 04:19:16;;;;;;;9.73;8.70;;;18.00;99.90;;;;;;4993973;28;20080;-75
2023/07/12 04:21:43;;;;;;;9.57;8.77;;;17.60;99.90;;;;;;4988728;28;20073;-73
2023/07/12 04:24:09;;;;;;;8.52;7.85;;;17.40;99.90;;;;;;4991997;28;20095;-74
2023/07/12 04:26:37;;;;;;;9.23;8.27;;;17.10;99.90;;;;;;4990523;28;20521;-74
2023/07/12 04:29:05;;;;;;;9.85;8.95;;;16.80;99.90;;;;;;4994366;28;20034;-74
2023/07/12 04:31:31;;;;;;;9.35;8.57;;;16.80;99.90;;;;;;4998928;28;20034;-73
2023/07/12 04:33:59;;;;;;;10.13;9.38;;;16.80;99.90;;;;;;4988278;28;20245;-74
2023/07/12 04:36:25;;;;;;;10.15;9.38;;;16.70;99.90;;;;;;4994733;28;20061;-73
2023/07/12 04:38:52;;;;;;;11.75;10.65;;;16.70;99.90;;;;;;5000330;28;20073;-76
2023/07/12 04:41:19;;;;;;;10.65;9.75;;;16.60;99.90;;;;;;4992903;28;20038;-75
2023/07/12 04:43:46;;;;;;;10.23;9.20;;;16.60;99.90;;;;;;4990729;28;20042;-74
2023/07/12 04:46:12;;;;;;;10.15;9.25;;;16.60;99.90;;;;;;4993839;28;20042;-75
2023/07/12 04:48:39;;;;;;;10.40;9.57;;;16.50;99.90;;;;;;4991172;28;20416;-75
2023/07/12 04:51:06;;;;;;;8.88;8.18;;;16.60;99.90;;;;;;4996281;28;20042;-75
2023/07/12 04:53:34;;;;;;;9.48;8.52;;;16.60;99.90;;;;;;4994785;28;20049;-74
2023/07/12 04:56:02;;;;;;;9.20;8.60;;;16.50;99.90;;;;;;4994588;28;20117;-76
2023/07/12 04:58:29;;;;;;;9.57;8.82;;;16.50;99.90;;;;;;4996732;28;20091;-73
2023/07/12 05:00:55;;;;;;;9.98;9.07;;;16.40;99.90;;;;;;4993896;28;20483;-74
2023/07/12 05:03:24;;;;;;;9.88;9.18;;;16.30;99.90;;;;;;4997234;28;20108;-74
2023/07/12 05:05:51;;;;;;;11.02;10.18;;;16.30;99.90;;;;;;4991967;28;20078;-74
2023/07/12 05:08:18;;;;;;;10.05;9.05;;;16.20;99.90;;;;;;5010518;28;20592;-73
2023/07/12 05:10:45;;;;;;;9.00;8.23;;;16.20;99.90;;;;;;4995157;28;20034;-73
2023/07/12 05:13:12;;;;;;;9.75;8.43;;;16.20;99.90;;;;;;4992592;28;20426;-73
2023/07/12 05:15:38;;;;;;;9.93;9.02;;;16.20;99.90;;;;;;4998187;28;20038;-73
2023/07/12 05:18:05;;;;;;;9.38;8.48;;;16.20;99.90;;;;;;4996724;28;20144;-74
2023/07/12 05:20:32;;;;;;;10.10;8.82;;;16.30;99.90;;;;;;5001327;28;20041;-73
2023/07/12 05:23:00;;;;;;;8.90;8.15;;;16.40;99.90;;;;;;4997876;28;20046;-73
2023/07/12 05:25:26;;;;;;;9.13;8.27;;;16.40;99.90;;;;;;4998088;28;20101;-72
2023/07/12 05:27:53;;;;;;;9.85;8.68;;;16.40;99.90;;;;;;4994319;28;20046;-73
2023/07/12 05:30:20;;;;;;;8.50;7.72;;;16.40;99.90;;;;;;4996714;28;20069;-73
2023/07/12 05:32:47;;;;;;;9.95;8.77;;;16.60;99.90;;;;;;4995185;28;20133;-73
2023/07/12 05:35:14;;;;;;;13.07;9.75;;;16.60;99.90;;;;;;4998477;28;20499;-73
2023/07/12 05:37:41;;;;;;;10.27;9.57;;;16.60;99.90;;;;;;4998361;28;20046;-73
2023/07/12 05:40:09;;;;;;;11.05;10.10;;;16.60;99.90;;;;;;4994070;28;20108;-73
2023/07/12 05:42:40;;;;;;;13.07;11.88;;;16.70;99.90;;;;;;5006721;28;20042;-73
2023/07/12 05:45:14;;;;;;;12.30;11.52;;;16.70;99.90;;;;;;4995855;28;20073;-73
2023/07/12 05:47:47;;;;;;;12.43;11.70;;;16.60;99.90;;;;;;4991814;28;20042;-73
2023/07/12 05:50:16;;;;;;;13.20;12.27;;;16.70;99.90;;;;;;4996634;28;20038;-72
2023/07/12 05:52:43;;;;;;;13.43;12.48;;;16.70;99.90;;;;;;4995271;28;20045;-74
2023/07/12 05:55:19;;;;;;;13.27;12.52;;;16.90;99.90;;;;;;4995927;28;20119;-75
2023/07/12 05:57:48;;;;;;;15.57;14.57;;;17.20;99.90;;;;;;4993377;28;20046;-73
2023/07/12 06:00:17;;;;;;;14.65;13.75;;;17.40;99.90;;;;;;4992233;28;20096;-75
2023/07/12 06:02:44;;;;;;;14.18;13.18;;;17.60;99.90;;;;;;4993528;28;20065;-75
2023/07/12 06:05:11;;;;;;;16.60;15.30;;;17.90;99.90;;;;;;4993336;28;20046;-73
2023/07/12 06:07:38;;;;;;;17.02;16.00;;;17.90;99.90;;;;;;4997028;28;20079;-73
2023/07/12 06:10:06;;;;;;;16.70;15.65;;;17.90;99.90;;;;;;4992345;28;20046;-73
2023/07/12 06:12:32;;;;;;;16.77;15.65;;;18.00;99.90;;;;;;4993248;28;20049;-73
2023/07/12 06:14:59;;;;;;;15.40;14.45;;;17.90;99.90;;;;;;4992377;28;20688;-74
2023/07/12 06:17:26;;;;;;;16.45;15.25;;;17.80;99.90;;;;;;4994358;28;20057;-73
2023/07/12 06:19:53;;;;;;;15.75;14.73;;;17.50;99.90;;;;;;4991096;28;20050;-73
2023/07/12 06:22:20;;;;;;;16.42;15.30;;;17.30;99.90;;;;;;4994770;28;20108;-74
2023/07/12 06:24:47;;;;;;;17.20;15.80;;;17.30;99.90;;;;;;4991412;28;20508;-74
2023/07/12 06:27:14;;;;;;;17.02;15.85;;;17.30;99.90;;;;;;4995993;28;20074;-73
2023/07/12 06:29:42;;;;;;;17.42;16.33;;;17.50;99.90;;;;;;4998973;28;20463;-74
2023/07/12 06:32:10;;;;;;;18.58;17.48;;;17.80;99.90;;;;;;4992936;28;20100;-74
2023/07/12 06:34:37;;;;;;;19.00;17.60;;;18.20;99.90;;;;;;4995184;28;20072;-74
2023/07/12 06:37:04;;;;;;;21.10;19.40;;;18.50;99.90;;;;;;4992136;28;20124;-73
2023/07/12 06:39:31;;;;;;;19.80;18.70;;;18.70;99.90;;;;;;4996972;28;20068;-74
2023/07/12 06:41:58;;;;;;;19.55;18.38;;;18.60;99.90;;;;;;4992840;28;20072;-75
2023/07/12 06:44:31;;;;;;;19.58;18.38;;;18.60;99.90;;;;;;4994904;28;20053;-74
2023/07/12 06:46:57;;;;;;;20.27;18.88;;;18.80;99.90;;;;;;4992565;28;20107;-74
2023/07/12 06:49:24;;;;;;;21.92;20.52;;;19.00;99.90;;;;;;4996217;28;20046;-73
2023/07/12 06:51:51;;;;;;;21.83;20.52;;;19.20;99.90;;;;;;4991801;28;20042;-73
2023/07/12 06:54:17;;;;;;;22.10;20.60;;;19.30;99.90;;;;;;5000497;28;20068;-73
2023/07/12 06:56:46;;;;;;;21.95;20.45;;;19.30;99.90;;;;;;4997574;28;20095;-73
2023/07/12 06:59:13;;;;;;;24.02;22.38;;;19.60;99.90;;;;;;4997146;28;20046;-73
2023/07/12 07:01:40;;;;;;;23.20;21.77;;;19.80;99.90;;;;;;4998481;28;20046;-74
2023/07/12 07:04:06;;;;;;;23.52;22.13;;;19.90;99.90;;;;;;4993128;28;20179;-74
2023/07/12 07:06:33;;;;;;;23.13;21.73;;;20.00;99.90;;;;;;4994725;28;20045;-71
2023/07/12 07:09:00;;;;;;;23.15;21.75;;;20.10;99.90;;;;;;4993162;28;20042;-71
2023/07/12 07:11:29;;;;;;;25.38;23.60;;;20.30;99.90;;;;;;4994190;28;20148;-73
2023/07/12 07:13:56;;;;;;;24.38;22.83;;;20.40;99.90;;;;;;4990811;28;20487;-72
2023/07/12 07:16:24;;;;;;;23.95;22.23;;;20.20;99.90;;;;;;4995648;28;20038;-71
2023/07/12 07:18:51;;;;;;;23.63;22.10;;;20.00;99.90;;;;;;4995669;28;20069;-70
2023/07/12 07:21:18;;;;;;;23.58;21.85;;;20.00;99.90;;;;;;5014757;28;20038;-70
2023/07/12 07:23:45;;;;;;;24.50;22.77;;;19.90;99.90;;;;;;5012655;28;20107;-70
2023/07/12 07:26:14;;;;;;;23.35;21.75;;;19.70;99.90;;;;;;5017767;28;20065;-71
2023/07/12 07:28:41;;;;;;;24.23;22.38;;;19.60;99.90;;;;;;5013537;28;20041;-71
2023/07/12 07:31:09;;;;;;;24.65;22.75;;;19.50;99.90;;;;;;4993936;28;20147;-71
2023/07/12 07:33:37;;;;;;;23.25;21.65;;;19.40;99.90;;;;;;4995454;28;20500;-72
2023/07/12 07:36:06;;;;;;;23.50;21.90;;;19.40;99.90;;;;;;4990827;28;20799;-70
2023/07/12 07:38:33;;;;;;;22.73;21.23;;;19.40;99.90;;;;;;4989913;28;20046;-71
2023/07/12 07:41:04;;;;;;;23.23;21.60;;;19.40;99.90;;;;;;4993844;28;20065;-73
2023/07/12 07:43:31;;;;;;;22.80;21.15;;;19.20;99.90;;;;;;4993458;28;20049;-70
2023/07/12 07:45:58;;;;;;;23.48;21.95;;;19.10;99.90;;;;;;4991795;28;20108;-70
2023/07/12 07:48:25;;;;;;;24.73;23.23;;;19.00;99.90;;;;;;4996123;28;20041;-73
2023/07/12 07:50:51;;;;;;;24.42;22.70;;;19.20;99.90;;;;;;4991757;28;20126;-72
2023/07/12 07:53:18;;;;;;;23.45;21.95;;;19.70;99.90;;;;;;4992561;28;20100;-72
2023/07/12 07:55:45;;;;;;;24.15;22.50;;;19.70;99.90;;;;;;4995211;28;20042;-71
2023/07/12 07:58:12;;;;;;;24.00;22.40;;;19.50;99.90;;;;;;4988531;28;20539;-70
2023/07/12 08:00:39;;;;;;;24.23;22.63;;;19.40;99.90;;;;;;4994685;28;20128;-70
2023/07/12 08:03:07;;;;;;;24.05;22.42;;;19.20;99.90;;;;;;4986700;28;20639;-70
2023/07/12 08:05:34;;;;;;;23.55;22.05;;;19.00;99.90;;;;;;4987922;28;20680;-69
2023/07/12 08:08:01;;;;;;;23.35;21.73;;;19.00;99.90;;;;;;4988332;28;20046;-73
2023/07/12 08:10:29;;;;;;;23.90;22.08;;;19.20;99.90;;;;;;4989846;28;20627;-70
2023/07/12 08:12:57;;;;;;;24.30;22.80;;;19.20;99.90;;;;;;4988343;28;20062;-71
2023/07/12 08:15:25;;;;;;;24.00;22.30;;;19.20;99.90;;;;;;4992198;28;20542;-69
2023/07/12 08:17:52;;;;;;;23.33;21.77;;;19.20;99.90;;;;;;4992652;28;20052;-70
2023/07/12 08:20:20;;;;;;;23.15;21.60;;;19.20;99.90;;;;;;5002808;28;20044;-69
2023/07/12 08:22:47;;;;;;;24.52;22.90;;;19.20;99.90;;;;;;4997370;28;20096;-69
2023/07/12 08:25:15;;;;;;;27.05;25.23;;;19.00;99.90;;;;;;4996379;28;20046;-70
2023/07/12 08:27:41;;;;;;;23.15;21.65;;;18.90;99.90;;;;;;4994753;28;20050;-72
2023/07/12 08:30:09;;;;;;;26.33;24.52;;;19.00;99.90;;;;;;5009027;28;20054;-70
2023/07/12 08:32:36;;;;;;;26.13;24.63;;;19.30;99.90;;;;;;4997526;28;20047;-72
2023/07/12 08:35:03;;;;;;;24.02;22.42;;;19.90;99.90;;;;;;4996034;28;20116;-70
2023/07/12 08:37:31;;;;;;;25.88;24.20;;;20.30;99.90;;;;;;5004046;28;20062;-69
2023/07/12 08:39:57;;;;;;;25.92;24.23;;;20.30;99.90;;;;;;5009700;28;20045;-71
2023/07/12 08:42:39;;;;;;;26.67;24.85;;;20.50;99.90;;;;;;5001825;28;20042;-72
2023/07/12 08:45:30;;;;;;;25.33;23.35;;;20.40;99.90;;;;;;4997572;28;20042;-71
2023/07/12 08:48:02;;;;;;;26.58;24.98;;;20.50;99.90;;;;;;4995889;28;20046;-68
2023/07/12 08:50:38;;;;;;;24.85;23.25;;;20.40;99.90;;;;;;5000109;28;20052;-71
2023/07/12 08:53:10;;;;;;;27.40;25.70;;;20.30;99.90;;;;;;4998620;28;20042;-71
2023/07/12 08:55:38;;;;;;;25.88;24.17;;;20.20;99.90;;;;;;4997930;28;20037;-71
2023/07/12 08:58:33;;;;;;;25.20;23.70;;;20.60;99.90;;;;;;4997936;28;20084;-71
2023/07/12 09:01:06;;;;;;;24.02;22.42;;;21.20;99.90;;;;;;4995773;28;20050;-71
2023/07/12 09:03:34;;;;;;;25.85;24.20;;;21.40;99.90;;;;;;5000707;28;20052;-70
2023/07/12 09:06:01;;;;;;;26.42;24.83;;;21.10;99.90;;;;;;4996145;28;20054;-72
2023/07/12 09:08:33;;;;;;;25.67;24.08;;;21.00;99.90;;;;;;4998792;28;20088;-69
2023/07/12 09:11:00;;;;;;;25.90;24.30;;;21.20;99.90;;;;;;4998020;28;20045;-70
2023/07/12 09:13:36;;;;;;;26.70;24.77;;;21.10;99.90;;;;;;4999087;28;20070;-71
2023/07/12 09:16:17;;;;;;;24.15;22.65;;;21.00;99.90;;;;;;4991620;28;20040;-72
2023/07/12 09:18:46;;;;;;;25.75;23.77;;;20.70;99.90;;;;;;4993942;28;20041;-70
2023/07/12 09:21:23;;;;;;;24.52;22.88;;;20.90;99.90;;;;;;4996632;28;20114;-69
2023/07/12 09:23:52;;;;;;;27.00;25.30;;;20.80;99.90;;;;;;4997485;28;20056;-69
2023/07/12 09:26:31;;;;;;;27.08;25.17;;;21.00;99.90;;;;;;4996507;28;20052;-72
2023/07/12 09:29:05;;;;;;;25.88;24.05;;;21.30;99.90;;;;;;5000763;28;20045;-69
2023/07/12 09:31:34;;;;;;;23.95;22.35;;;21.30;99.90;;;;;;4996604;28;20046;-69
2023/07/12 09:34:06;;;;;;;26.58;24.88;;;21.30;99.90;;;;;;4990483;28;20044;-70
2023/07/12 09:36:39;;;;;;;25.48;23.77;;;21.20;99.90;;;;;;4998339;28;20069;-71
2023/07/12 09:39:12;;;;;;;27.35;25.52;;;21.20;99.90;;;;;;4990560;28;20045;-69
2023/07/12 09:41:50;;;;;;;26.58;24.73;;;21.50;99.90;;;;;;4992992;28;20049;-69
2023/07/12 09:44:17;;;;;;;26.80;24.98;;;22.10;99.90;;;;;;4992065;28;20045;-70
2023/07/12 09:46:54;;;;;;;25.88;24.10;;;22.30;99.90;;;;;;4993969;28;20108;-70
2023/07/12 09:49:32;;;;;;;27.45;25.70;;;21.90;99.90;;;;;;4996751;28;20057;-71
2023/07/12 09:52:17;;;;;;;28.40;26.40;;;22.10;99.90;;;;;;4998964;28;20147;-71
2023/07/12 09:54:46;;;;;;;25.05;23.20;;;22.70;99.90;;;;;;5005930;28;20141;-68
2023/07/12 09:57:19;;;;;;;27.40;25.60;;;22.70;99.90;;;;;;4998161;28;20065;-71
2023/07/12 09:59:57;;;;;;;24.27;22.58;;;22.70;99.90;;;;;;4998495;28;20042;-69
2023/07/12 10:03:01;;;;;;;27.45;25.73;;;22.80;99.90;;;;;;4997150;28;20104;-73
2023/07/12 10:05:28;;;;;;;27.95;25.95;;;22.50;99.90;;;;;;5000809;28;20060;-72
2023/07/12 10:08:08;;;;;;;20.98;19.55;;;22.30;99.90;;;;;;4999595;28;20098;-71
2023/07/12 10:10:49;;;;;;;25.35;23.55;;;22.30;99.90;;;;;;5004902;28;20104;-72
2023/07/12 10:13:33;;;;;;;24.30;22.60;;;22.80;99.90;;;;;;4997506;28;20046;-69
2023/07/12 10:16:03;;;;;;;24.90;23.27;;;23.20;99.90;;;;;;4998093;28;20049;-71
2023/07/12 10:18:35;;;;;;;25.38;23.58;;;23.30;99.90;;;;;;5001967;28;20042;-69
2023/07/12 10:21:04;;;;;;;25.73;23.67;;;23.00;99.90;;;;;;5000963;28;20050;-67
2023/07/12 10:23:41;;;;;;;24.27;22.58;;;23.10;99.90;;;;;;5001414;28;20038;-68
2023/07/12 10:26:12;;;;;;;25.40;23.60;;;23.00;99.90;;;;;;5000587;28;20470;-70
2023/07/12 10:29:05;;;;;;;26.80;24.67;;;23.10;99.90;;;;;;5009557;28;20052;-69
2023/07/12 10:31:37;;;;;;;24.13;22.33;;;23.10;99.90;;;;;;5018409;28;20599;-70
2023/07/12 10:34:13;;;;;;;24.75;22.95;;;23.30;99.90;;;;;;4998652;28;20710;-68
2023/07/12 10:36:43;;;;;;;27.35;25.48;;;23.30;99.90;;;;;;4998148;28;20100;-71
2023/07/12 10:39:10;;;;;;;28.70;26.75;;;23.00;99.90;;;;;;4993922;28;20053;-69
2023/07/12 10:42:00;;;;;;;26.60;24.70;;;23.00;99.90;;;;;;4997626;28;20077;-69
2023/07/12 10:44:32;;;;;;;25.35;23.35;;;23.10;99.90;;;;;;5001116;28;20045;-69
2023/07/12 10:47:03;;;;;;;28.40;26.08;;;22.80;99.90;;;;;;4996222;28;20049;-69
2023/07/12 10:49:47;;;;;;;27.60;25.45;;;22.90;99.90;;;;;;4998197;28;20137;-69
2023/07/12 10:52:29;;;;;;;23.77;21.98;;;23.40;99.90;;;;;;4993068;28;20042;-71
2023/07/12 10:55:18;;;;;;;27.17;25.17;;;23.50;99.90;;;;;;4995759;28;20079;-69
2023/07/12 10:57:49;;;;;;;28.65;26.52;;;23.90;99.90;;;;;;4995175;28;20046;-71
2023/07/12 11:00:15;;;;;;;23.50;21.80;;;23.80;99.90;;;;;;4995475;28;20528;-70
2023/07/12 11:02:56;;;;;;;28.67;26.60;;;24.20;99.90;;;;;;4997857;28;20092;-71
2023/07/12 11:05:46;;;;;;;27.65;25.70;;;24.00;99.90;;;;;;4993632;28;20658;-73
2023/07/12 11:08:31;;;;;;;28.00;25.85;;;23.80;99.90;;;;;;4998928;28;20053;-71
2023/07/12 11:11:20;;;;;;;27.90;26.00;;;23.40;99.90;;;;;;4998400;28;20512;-71
2023/07/12 11:13:56;;;;;;;26.13;24.33;;;23.30;99.90;;;;;;4993433;28;20044;-72
2023/07/12 11:16:25;;;;;;;26.58;24.63;;;23.50;99.90;;;;;;4989185;28;20042;-72
2023/07/12 11:18:56;;;;;;;24.77;22.88;;;23.50;99.90;;;;;;4996706;28;20439;-72
2023/07/12 11:22:02;;;;;;;26.23;24.30;;;23.60;99.90;;;;;;4992725;28;20049;-72
2023/07/12 11:24:48;;;;;;;28.13;26.23;;;23.30;99.90;;;;;;4995899;28;20046;-72
2023/07/12 11:27:55;;;;;;;26.70;24.80;;;23.10;99.90;;;;;;5006268;28;20077;-71
2023/07/12 11:30:28;;;;;;;28.50;26.50;;;23.50;99.90;;;;;;4988069;28;20045;-71
2023/07/12 11:33:01;;;;;;;28.67;26.70;;;23.30;99.90;;;;;;5015424;28;20046;-70
2023/07/12 11:35:43;;;;;;;29.30;27.17;;;23.20;99.90;;;;;;4999630;28;20069;-69
2023/07/12 11:38:20;;;;;;;27.45;25.45;;;23.50;99.90;;;;;;4995389;28;20314;-72
2023/07/12 11:40:51;;;;;;;28.52;26.50;;;23.70;99.90;;;;;;4994655;28;20551;-70
2023/07/12 11:43:24;;;;;;;29.27;27.02;;;23.40;99.90;;;;;;4994028;28;20464;-71
2023/07/12 11:45:53;;;;;;;27.42;25.52;;;23.20;99.90;;;;;;4977439;28;20054;-71
2023/07/12 11:48:20;;;;;;;28.33;26.42;;;23.50;99.90;;;;;;4994060;28;20045;-71
2023/07/12 11:51:01;;;;;;;31.17;28.73;;;23.90;99.90;;;;;;4995505;28;20045;-71
2023/07/12 11:53:28;;;;;;;28.45;26.52;;;24.00;99.90;;;;;;4991451;28;20046;-70
2023/07/12 11:55:55;;;;;;;28.67;26.83;;;23.80;99.90;;;;;;4993730;28;20050;-71
2023/07/12 11:58:26;;;;;;;31.20;28.90;;;24.20;99.90;;;;;;4988287;28;20038;-70
2023/07/12 12:00:56;;;;;;;28.88;26.85;;;24.60;99.90;;;;;;5005620;28;20148;-71
2023/07/12 12:03:24;;;;;;;28.13;26.13;;;24.70;99.90;;;;;;4993140;28;20044;-71
2023/07/12 12:05:52;;;;;;;28.85;26.63;;;24.30;99.90;;;;;;4993001;28;20753;-69
2023/07/12 12:08:27;;;;;;;30.35;28.33;;;24.10;99.90;;;;;;4991915;28;20042;-69
2023/07/12 12:10:54;;;;;;;29.15;26.95;;;24.30;99.90;;;;;;4994674;28;20058;-71
2023/07/12 12:13:21;;;;;;;27.63;25.02;;;24.50;99.90;;;;;;4991009;28;20030;-71
2023/07/12 12:15:57;;;;;;;27.02;24.73;;;24.60;99.90;;;;;;4989806;28;20034;-71
2023/07/12 12:18:24;;;;;;;27.20;25.20;;;24.80;99.90;;;;;;4988539;28;20416;-71
2023/07/12 12:21:15;;;;;;;24.17;22.27;;;24.30;99.90;;;;;;4996303;28;20038;-71
2023/07/12 12:24:06;;;;;;;25.75;23.90;;;24.00;99.90;;;;;;5008628;28;20057;-69
2023/07/12 12:26:37;;;;;;;28.98;26.85;;;24.00;99.90;;;;;;4987721;28;21820;-72
2023/07/12 12:29:16;;;;;;;30.17;27.70;;;24.40;99.90;;;;;;4993652;28;20176;-69
2023/07/12 12:32:02;;;;;;;29.33;27.20;;;24.40;99.90;;;;;;4994080;28;20041;-70
2023/07/12 12:34:41;;;;;;;25.23;23.40;;;24.60;99.90;;;;;;4991832;28;20044;-70
2023/07/12 12:37:11;;;;;;;30.27;27.95;;;24.80;99.90;;;;;;4992045;28;20065;-70
2023/07/12 12:39:38;;;;;;;24.83;23.13;;;24.70;99.90;;;;;;4993128;28;20046;-70
2023/07/12 12:42:21;;;;;;;31.75;29.45;;;24.40;99.90;;;;;;4994813;28;20045;-70
2023/07/12 12:44:51;;;;;;;24.83;23.02;;;24.00;99.90;;;;;;4994365;28;20060;-70